Time;durP1;ratioP1;P1;durP2;ratioP2;P2;SDS_P1;SDS_P2;PMS_P1;PMS_P2;Temp;Humidity;BMP_temperature;BMP_pressure;BME280_temperature;BME280_humidity;BME280_pressure;Samples;Min_cycle;Max_cycle;Signal;HPM_P1;HPM_P2
2021/04/28 00:02:12;;;;;;;43.67;24.33;;;9.90;99.90;;;;;;5047715;28;20056;-82
2021/04/28 00:04:39;;;;;;;45.22;24.77;;;9.90;99.90;;;;;;5059378;28;20049;-83
2021/04/28 00:07:06;;;;;;;41.17;23.85;;;9.90;99.90;;;;;;5054814;28;20044;-83
2021/04/28 00:09:33;;;;;;;41.47;24.58;;;9.90;99.90;;;;;;5071116;28;20044;-83
2021/04/28 00:12:02;;;;;;;39.13;24.95;;;9.80;99.90;;;;;;5072009;28;20048;-83
2021/04/28 00:14:30;;;;;;;41.17;25.92;;;9.50;99.90;;;;;;5070565;28;20053;-84
2021/04/28 00:16:58;;;;;;;43.38;25.80;;;9.40;99.90;;;;;;5066954;28;20048;-84
2021/04/28 00:19:28;;;;;;;39.67;24.42;;;9.80;99.90;;;;;;5072736;28;20075;-83
2021/04/28 00:21:55;;;;;;;41.42;24.55;;;9.80;99.90;;;;;;5065388;28;20482;-83
2021/04/28 00:24:23;;;;;;;44.70;28.35;;;9.80;99.90;;;;;;5073945;28;20048;-83
2021/04/28 00:26:50;;;;;;;56.35;28.42;;;9.80;99.90;;;;;;5036650;28;20044;-83
2021/04/28 00:29:18;;;;;;;46.40;27.52;;;9.70;99.90;;;;;;5074122;28;20052;-83
2021/04/28 00:31:46;;;;;;;49.92;26.95;;;9.70;99.90;;;;;;5069090;28;20049;-84
2021/04/28 00:34:14;;;;;;;49.10;27.58;;;9.60;99.90;;;;;;5058283;28;20048;-82
2021/04/28 00:36:41;;;;;;;52.38;29.20;;;9.60;99.90;;;;;;5037030;28;20044;-83
2021/04/28 00:39:08;;;;;;;48.88;29.02;;;9.50;99.90;;;;;;5081658;28;20055;-83
2021/04/28 00:41:35;;;;;;;54.35;29.88;;;9.50;99.90;;;;;;5085035;28;20044;-85
2021/04/28 00:44:02;;;;;;;44.83;28.40;;;9.50;99.90;;;;;;5087407;28;20052;-86
2021/04/28 00:46:29;;;;;;;53.50;33.83;;;9.50;99.90;;;;;;5079751;28;20048;-85
2021/04/28 00:48:57;;;;;;;46.47;30.17;;;9.50;99.90;;;;;;5044573;28;20048;-85
2021/04/28 00:51:25;;;;;;;48.95;30.48;;;9.40;99.90;;;;;;5054382;28;20048;-89
2021/04/28 00:53:53;;;;;;;47.83;30.95;;;9.30;99.90;;;;;;5057954;28;20044;-91
2021/04/28 00:56:21;;;;;;;54.17;31.02;;;9.20;99.90;;;;;;5074688;28;20056;-85
2021/04/28 00:58:48;;;;;;;46.78;30.92;;;9.20;99.90;;;;;;5056611;28;20399;-88
2021/04/28 01:01:15;;;;;;;48.63;30.13;;;9.20;99.90;;;;;;5066854;28;20064;-86
2021/04/28 01:03:44;;;;;;;50.35;28.27;;;9.10;99.90;;;;;;5062136;28;20040;-84
2021/04/28 01:06:11;;;;;;;49.67;28.95;;;9.10;99.90;;;;;;5071551;28;20053;-85
2021/04/28 01:08:41;;;;;;;54.55;28.08;;;9.10;99.90;;;;;;5053418;28;20048;-83
2021/04/28 01:11:09;;;;;;;39.67;26.67;;;9.00;99.90;;;;;;5050807;28;20048;-83
2021/04/28 01:13:52;;;;;;;45.42;25.83;;;8.90;99.90;;;;;;5037307;28;20765;-83
2021/04/28 01:16:20;;;;;;;47.65;27.98;;;8.80;99.90;;;;;;5069089;28;20055;-83
2021/04/28 01:18:49;;;;;;;43.30;26.98;;;8.80;99.90;;;;;;5057472;28;20044;-83
2021/04/28 01:21:18;;;;;;;40.00;25.10;;;8.70;99.90;;;;;;5063694;28;20049;-83
2021/04/28 01:23:46;;;;;;;66.65;26.88;;;9.10;99.90;;;;;;5053856;28;20689;-86
2021/04/28 01:26:17;;;;;;;43.80;27.65;;;9.40;99.90;;;;;;5059670;28;20451;-84
2021/04/28 01:28:47;;;;;;;48.60;26.55;;;8.50;99.90;;;;;;5056957;28;20060;-83
2021/04/28 01:31:16;;;;;;;46.13;26.42;;;8.40;99.90;;;;;;5035312;28;20041;-83
2021/04/28 01:33:47;;;;;;;45.67;25.77;;;8.40;99.90;;;;;;5053378;28;20056;-82
2021/04/28 01:36:22;;;;;;;54.28;29.48;;;8.30;99.90;;;;;;5061598;28;20055;-82
2021/04/28 01:38:52;;;;;;;45.38;28.67;;;8.20;99.90;;;;;;5052664;28;20071;-83
2021/04/28 01:41:24;;;;;;;45.88;29.15;;;8.20;99.90;;;;;;5050788;28;20037;-82
2021/04/28 01:43:55;;;;;;;45.72;28.50;;;8.20;99.90;;;;;;5052047;28;20044;-86
2021/04/28 01:46:29;;;;;;;49.88;28.80;;;8.20;99.90;;;;;;5035767;28;20044;-82
2021/04/28 01:49:00;;;;;;;44.90;27.92;;;8.20;99.90;;;;;;5054944;28;20391;-82
2021/04/28 01:51:30;;;;;;;;;;;8.30;99.90;;;;;;5056504;28;20115;-83
2021/04/28 01:53:58;;;;;;;50.40;29.20;;;8.20;99.90;;;;;;5075069;28;19935;-82
2021/04/28 01:56:30;;;;;;;44.95;28.02;;;8.30;99.90;;;;;;5075429;28;20052;-84
2021/04/28 01:59:21;;;;;;;48.42;26.88;;;8.20;99.90;;;;;;5050894;28;20063;-83
2021/04/28 02:02:09;;;;;;;57.85;29.48;;;8.20;99.90;;;;;;5070507;28;20052;-83
2021/04/28 02:04:45;;;;;;;48.28;29.25;;;8.20;99.90;;;;;;5070802;28;20048;-83
2021/04/28 02:07:16;;;;;;;52.05;30.40;;;8.20;99.90;;;;;;5050309;28;20052;-84
2021/04/28 02:09:44;;;;;;;47.80;29.42;;;8.20;99.90;;;;;;5045232;28;20056;-83
2021/04/28 02:12:20;;;;;;;50.00;27.80;;;8.20;99.90;;;;;;5053018;28;20385;-84
2021/04/28 02:14:50;;;;;;;54.80;30.88;;;8.20;99.90;;;;;;5037005;28;20048;-82
2021/04/28 02:17:30;;;;;;;46.22;29.13;;;8.20;99.90;;;;;;5035991;28;20044;-82
2021/04/28 02:20:01;;;;;;;45.80;29.23;;;8.20;99.90;;;;;;5051417;28;20059;-82
2021/04/28 02:22:40;;;;;;;55.60;29.48;;;8.20;99.90;;;;;;5039052;28;20047;-82
2021/04/28 02:25:16;;;;;;;45.60;27.60;;;8.20;99.90;;;;;;5052333;28;20063;-84
2021/04/28 02:28:06;;;;;;;47.47;27.52;;;8.20;99.90;;;;;;5055028;28;20060;-82
2021/04/28 02:30:40;;;;;;;52.42;28.85;;;8.20;99.90;;;;;;5050363;28;20040;-84
2021/04/28 02:33:08;;;;;;;57.70;32.88;;;9.00;99.90;;;;;;5035293;28;20056;-82
2021/04/28 02:35:57;;;;;;;54.25;30.10;;;8.20;99.90;;;;;;5051325;28;20041;-82
2021/04/28 02:39:22;;;;;;;50.13;29.00;;;8.10;99.90;;;;;;5032907;28;20052;-82
2021/04/28 02:41:52;;;;;;;48.03;26.73;;;8.10;99.90;;;;;;5034700;28;20056;-82
2021/04/28 02:44:26;;;;;;;50.17;28.27;;;8.00;99.90;;;;;;5051218;28;20044;-82
2021/04/28 02:47:00;;;;;;;51.38;30.25;;;8.00;99.90;;;;;;5033451;28;20048;-82
2021/04/28 02:49:30;;;;;;;46.00;27.02;;;8.00;99.90;;;;;;5034628;28;20047;-85
2021/04/28 02:52:11;;;;;;;49.00;26.73;;;7.90;99.90;;;;;;5032736;28;20047;-85
2021/04/28 02:54:47;;;;;;;51.47;28.67;;;7.80;99.90;;;;;;5068960;28;20530;-82
2021/04/28 02:57:25;;;;;;;54.17;29.27;;;7.80;99.90;;;;;;5049728;28;20068;-84
2021/04/28 02:59:55;;;;;;;42.42;24.55;;;7.70;99.90;;;;;;5058674;28;20040;-84
2021/04/28 03:02:27;;;;;;;46.78;28.95;;;7.70;99.90;;;;;;5052456;28;20487;-83
2021/04/28 03:04:55;;;;;;;48.60;26.05;;;7.60;99.90;;;;;;5051465;28;20053;-83
2021/04/28 03:07:56;;;;;;;41.67;26.88;;;7.80;99.90;;;;;;5060422;28;20064;-82
2021/04/28 03:10:28;;;;;;;46.88;25.05;;;7.60;99.90;;;;;;5033559;28;20040;-82
2021/04/28 03:13:05;;;;;;;46.60;26.77;;;7.50;99.90;;;;;;5041872;28;20056;-82
2021/04/28 03:15:49;;;;;;;49.97;29.50;;;7.50;99.90;;;;;;5058446;28;20052;-82
2021/04/28 03:18:19;;;;;;;55.97;24.55;;;7.50;99.90;;;;;;5053225;28;20051;-81
2021/04/28 03:20:53;;;;;;;57.45;32.80;;;7.40;99.90;;;;;;5069712;28;20063;-82
2021/04/28 03:23:25;;;;;;;47.17;28.52;;;7.90;99.90;;;;;;5052051;28;20052;-83
2021/04/28 03:25:54;;;;;;;52.70;28.70;;;7.20;99.90;;;;;;5050320;28;20044;-82
2021/04/28 03:28:26;;;;;;;47.67;27.35;;;7.10;99.90;;;;;;5068909;28;20063;-82
2021/04/28 03:31:10;;;;;;;45.05;26.52;;;7.00;99.90;;;;;;5060821;28;20059;-82
2021/04/28 03:33:44;;;;;;;47.85;28.42;;;7.00;99.90;;;;;;5047272;28;20056;-82
2021/04/28 03:36:12;;;;;;;46.97;28.63;;;7.40;99.90;;;;;;5074624;28;20431;-82
2021/04/28 03:38:52;;;;;;;52.40;29.42;;;7.00;99.90;;;;;;5044877;28;20048;-82
2021/04/28 03:41:29;;;;;;;50.15;28.00;;;6.90;99.90;;;;;;5066895;28;20045;-82
2021/04/28 03:43:58;;;;;;;47.30;26.52;;;6.80;99.90;;;;;;5041910;28;20051;-82
2021/04/28 03:46:27;;;;;;;46.40;26.55;;;6.70;99.90;;;;;;5071161;28;20063;-84
2021/04/28 03:49:15;;;;;;;42.47;27.70;;;6.60;99.90;;;;;;5046059;28;20056;-82
2021/04/28 03:51:45;;;;;;;41.78;24.45;;;6.60;99.90;;;;;;5054024;28;20048;-82
2021/04/28 03:54:18;;;;;;;44.80;27.73;;;6.50;99.90;;;;;;5067121;28;20048;-82
2021/04/28 03:57:01;;;;;;;42.10;25.05;;;6.60;99.90;;;;;;5053838;28;20043;-83
2021/04/28 03:59:32;;;;;;;44.90;25.95;;;6.40;99.90;;;;;;5055573;28;20068;-81
2021/04/28 04:01:59;;;;;;;49.05;28.05;;;7.40;99.90;;;;;;5070405;28;20052;-82
2021/04/28 04:04:39;;;;;;;42.58;27.35;;;6.40;99.90;;;;;;5053622;28;20060;-82
2021/04/28 04:07:39;;;;;;;43.00;25.27;;;6.50;99.90;;;;;;5028837;28;20056;-82
2021/04/28 04:10:11;;;;;;;47.33;30.00;;;6.50;99.90;;;;;;5033288;28;20468;-84
2021/04/28 04:12:41;;;;;;;49.13;26.70;;;6.60;99.90;;;;;;5038336;28;20040;-83
2021/04/28 04:15:17;;;;;;;43.87;25.33;;;6.60;99.90;;;;;;5054950;28;20439;-83
2021/04/28 04:17:45;;;;;;;48.28;26.63;;;6.70;99.90;;;;;;5022170;28;20319;-83
2021/04/28 04:20:21;;;;;;;46.88;27.27;;;6.70;99.90;;;;;;5053801;28;20045;-82
2021/04/28 04:22:52;;;;;;;46.20;25.58;;;6.70;99.90;;;;;;5038217;28;20055;-82
2021/04/28 04:25:33;;;;;;;42.30;25.10;;;6.60;99.90;;;;;;5053507;28;20072;-82
2021/04/28 04:28:01;;;;;;;49.50;26.50;;;6.50;99.90;;;;;;5072358;28;20049;-82
2021/04/28 04:30:50;;;;;;;46.58;25.75;;;6.50;99.90;;;;;;5054169;28;20051;-83
2021/04/28 04:33:37;;;;;;;39.00;22.35;;;6.50;99.90;;;;;;5068518;28;20522;-83
2021/04/28 04:36:37;;;;;;;45.60;24.92;;;6.60;99.90;;;;;;5031637;28;20052;-82
2021/04/28 04:39:25;;;;;;;48.03;24.73;;;6.60;99.90;;;;;;5069190;28;20511;-82
2021/04/28 04:42:28;;;;;;;41.60;25.00;;;6.60;99.90;;;;;;5034582;28;20525;-82
2021/04/28 04:45:15;;;;;;;40.85;23.13;;;6.70;99.90;;;;;;5073463;28;20057;-82
2021/04/28 04:47:45;;;;;;;51.85;23.45;;;6.70;99.90;;;;;;5036456;28;20052;-84
2021/04/28 04:50:13;;;;;;;37.88;23.85;;;6.80;99.90;;;;;;5068065;28;20071;-82
2021/04/28 04:52:42;;;;;;;44.10;25.02;;;6.80;99.90;;;;;;5050873;28;20503;-82
2021/04/28 04:55:10;;;;;;;48.47;24.17;;;8.40;99.90;;;;;;5071249;28;20064;-82
2021/04/28 04:57:41;;;;;;;39.08;24.08;;;7.00;99.90;;;;;;5060665;28;20055;-82
2021/04/28 05:00:10;;;;;;;41.65;25.52;;;7.10;99.90;;;;;;5061977;28;20065;-82
2021/04/28 05:02:38;;;;;;;40.25;23.02;;;7.10;99.90;;;;;;5070040;28;20407;-82
2021/04/28 05:05:09;;;;;;;37.33;23.73;;;7.20;99.90;;;;;;5054843;28;20048;-82
2021/04/28 05:07:40;;;;;;;38.90;23.98;;;7.20;99.90;;;;;;5037390;28;20057;-83
2021/04/28 05:10:13;;;;;;;40.17;25.25;;;7.30;99.90;;;;;;5045849;28;20282;-82
2021/04/28 05:12:45;;;;;;;40.80;23.17;;;7.30;99.90;;;;;;5051302;28;20044;-82
2021/04/28 05:15:17;;;;;;;39.03;23.05;;;7.40;99.90;;;;;;5033150;28;20507;-82
2021/04/28 05:17:44;;;;;;;50.40;24.48;;;7.50;99.90;;;;;;5066894;28;20055;-82
2021/04/28 05:20:14;;;;;;;41.42;23.60;;;7.50;99.90;;;;;;5063460;28;20053;-82
2021/04/28 05:22:42;;;;;;;47.25;25.13;;;7.60;99.90;;;;;;5050371;28;20067;-82
2021/04/28 05:25:31;;;;;;;41.05;24.30;;;7.70;99.90;;;;;;5067660;28;20043;-82
2021/04/28 05:27:59;;;;;;;69.70;25.52;;;7.70;99.90;;;;;;5050596;28;20049;-82
2021/04/28 05:30:32;;;;;;;49.13;26.20;;;7.80;99.90;;;;;;5067628;28;20059;-81
2021/04/28 05:33:02;;;;;;;38.58;22.95;;;7.80;99.90;;;;;;5067752;28;20067;-82
2021/04/28 05:35:30;;;;;;;40.10;26.95;;;7.90;99.90;;;;;;5033983;28;20056;-82
2021/04/28 05:37:58;;;;;;;41.55;23.75;;;8.00;99.90;;;;;;5050217;28;20056;-82
2021/04/28 05:40:25;;;;;;;41.38;26.80;;;8.00;99.90;;;;;;5049624;28;20045;-82
2021/04/28 05:42:53;;;;;;;45.90;26.02;;;8.00;99.90;;;;;;5049456;28;20538;-82
2021/04/28 05:45:21;;;;;;;46.58;27.15;;;8.00;99.90;;;;;;5049367;28;20052;-83
2021/04/28 05:47:49;;;;;;;38.00;25.15;;;8.10;99.90;;;;;;5061652;28;20049;-82
2021/04/28 05:50:18;;;;;;;37.38;23.90;;;8.00;99.90;;;;;;5046160;28;20559;-82
2021/04/28 05:52:45;;;;;;;49.00;25.15;;;8.10;99.90;;;;;;5033781;28;20055;-82
2021/04/28 05:55:23;;;;;;;48.05;24.50;;;8.30;99.90;;;;;;5052335;28;20063;-82
2021/04/28 05:57:50;;;;;;;47.67;25.00;;;8.10;99.90;;;;;;5065746;28;20059;-81
2021/04/28 06:00:18;;;;;;;41.00;23.98;;;8.20;99.90;;;;;;5058753;28;20048;-83
2021/04/28 06:02:46;;;;;;;49.65;26.58;;;8.30;99.90;;;;;;5046653;28;20051;-83
2021/04/28 06:05:14;;;;;;;42.65;24.13;;;8.60;99.90;;;;;;5048695;28;20057;-83
2021/04/28 06:07:41;;;;;;;37.22;23.10;;;8.40;99.90;;;;;;5048312;28;20600;-83
2021/04/28 06:10:14;;;;;;;46.08;27.85;;;9.10;99.90;;;;;;5041443;28;20440;-83
2021/04/28 06:12:42;;;;;;;52.03;27.55;;;8.60;99.90;;;;;;5029959;28;20056;-82
2021/04/28 06:15:11;;;;;;;42.25;23.85;;;8.60;99.90;;;;;;5046562;28;20057;-81
2021/04/28 06:17:40;;;;;;;47.55;24.55;;;8.80;99.90;;;;;;5045750;28;20056;-82
2021/04/28 06:20:10;;;;;;;47.70;23.70;;;8.70;99.90;;;;;;5067816;28;20063;-82
2021/04/28 06:22:38;;;;;;;44.80;25.40;;;8.80;99.90;;;;;;5068102;28;20055;-82
2021/04/28 06:25:07;;;;;;;44.38;26.88;;;9.80;99.90;;;;;;5070147;28;20040;-82
2021/04/28 06:27:34;;;;;;;37.25;24.00;;;9.00;99.90;;;;;;5071375;28;20049;-82
2021/04/28 06:30:03;;;;;;;46.95;29.98;;;9.10;99.90;;;;;;5067829;28;20045;-82
2021/04/28 06:32:30;;;;;;;45.40;25.58;;;9.10;99.90;;;;;;5050353;28;20045;-82
2021/04/28 06:35:00;;;;;;;39.67;25.48;;;9.20;99.90;;;;;;5038577;28;20060;-82
2021/04/28 06:37:28;;;;;;;45.28;25.17;;;9.30;99.90;;;;;;5049569;28;20048;-81
2021/04/28 06:39:55;;;;;;;49.58;27.45;;;9.40;99.90;;;;;;5048906;28;20491;-81
2021/04/28 06:42:23;;;;;;;43.78;26.65;;;9.50;99.90;;;;;;5047817;28;20049;-82
2021/04/28 06:44:50;;;;;;;37.20;24.02;;;9.60;99.90;;;;;;5048866;28;20053;-81
2021/04/28 06:47:18;;;;;;;40.40;25.15;;;9.60;99.90;;;;;;5047276;28;20053;-84
2021/04/28 06:49:46;;;;;;;42.83;26.20;;;9.60;99.90;;;;;;5045467;28;20045;-81
2021/04/28 06:52:14;;;;;;;37.33;22.58;;;9.60;99.90;;;;;;5045570;28;20385;-82
2021/04/28 06:54:41;;;;;;;39.25;21.38;;;9.70;99.90;;;;;;5040103;28;20064;-82
2021/04/28 06:57:08;;;;;;;40.78;22.80;;;9.70;99.90;;;;;;5042872;28;20052;-82
2021/04/28 06:59:35;;;;;;;37.90;22.33;;;9.70;99.90;;;;;;5041577;28;20049;-81
2021/04/28 07:02:03;;;;;;;41.30;24.15;;;9.70;99.90;;;;;;5048053;28;20065;-83
2021/04/28 07:04:32;;;;;;;37.95;20.73;;;9.70;99.90;;;;;;5046363;28;20053;-81
2021/04/28 07:07:00;;;;;;;43.33;22.38;;;9.70;99.90;;;;;;5046110;28;20063;-79
2021/04/28 07:09:27;;;;;;;34.15;19.73;;;9.80;99.90;;;;;;5042464;28;20049;-82
2021/04/28 07:11:54;;;;;;;41.22;24.55;;;9.90;99.90;;;;;;5045150;28;20064;-81
2021/04/28 07:14:22;;;;;;;42.08;20.77;;;9.90;99.90;;;;;;5048209;28;20682;-84
2021/04/28 07:16:50;;;;;;;36.47;22.45;;;10.00;99.90;;;;;;5047519;28;20060;-81
2021/04/28 07:19:24;;;;;;;45.50;22.90;;;10.00;99.90;;;;;;5047218;28;20079;-82
2021/04/28 07:21:51;;;;;;;38.40;20.85;;;10.10;99.90;;;;;;5046668;28;20049;-81
2021/04/28 07:24:18;;;;;;;32.78;21.60;;;10.20;99.90;;;;;;5043837;28;20147;-81
2021/04/28 07:26:46;;;;;;;38.60;21.90;;;10.20;99.90;;;;;;5047884;28;20056;-82
2021/04/28 07:29:13;;;;;;;38.80;21.10;;;10.40;99.90;;;;;;5047347;28;20570;-82
2021/04/28 07:31:40;;;;;;;46.63;22.13;;;10.40;99.90;;;;;;5046600;28;20048;-83
2021/04/28 07:34:08;;;;;;;32.92;20.65;;;10.40;99.90;;;;;;5046979;28;20500;-83
2021/04/28 07:36:35;;;;;;;40.15;19.58;;;10.50;99.90;;;;;;5046660;28;20053;-83
2021/04/28 07:39:05;;;;;;;34.28;20.52;;;10.50;99.90;;;;;;5047160;28;20053;-82
2021/04/28 07:41:34;;;;;;;43.63;23.02;;;10.60;99.90;;;;;;5046079;28;20052;-83
2021/04/28 07:44:05;;;;;;;41.88;21.15;;;10.70;99.90;;;;;;5040003;28;20057;-83
2021/04/28 07:46:35;;;;;;;39.83;20.45;;;10.70;99.90;;;;;;5040810;28;20052;-83
2021/04/28 07:49:04;;;;;;;33.08;20.00;;;10.80;99.90;;;;;;5044524;28;20053;-82
2021/04/28 07:51:35;;;;;;;35.22;22.38;;;10.80;99.90;;;;;;5043446;28;20060;-84
2021/04/28 07:54:09;;;;;;;34.55;20.00;;;10.90;99.90;;;;;;5046503;28;20457;-83
2021/04/28 07:56:37;;;;;;;32.38;18.92;;;10.90;99.90;;;;;;5046687;28;20059;-82
2021/04/28 07:59:06;;;;;;;35.88;20.08;;;10.90;99.90;;;;;;5042376;28;20061;-82
2021/04/28 08:01:33;;;;;;;39.35;20.45;;;11.00;99.90;;;;;;5043507;28;20053;-83
2021/04/28 08:04:01;;;;;;;43.17;20.80;;;11.00;99.90;;;;;;5046276;28;20064;-83
2021/04/28 08:06:29;;;;;;;38.45;19.45;;;11.00;99.90;;;;;;5062324;28;20048;-83
2021/04/28 08:08:56;;;;;;;38.92;18.25;;;11.00;99.90;;;;;;5065564;28;20067;-83
2021/04/28 08:11:25;;;;;;;32.30;17.90;;;11.00;99.90;;;;;;5065212;28;20053;-82
2021/04/28 08:13:53;;;;;;;27.85;15.68;;;11.00;99.90;;;;;;5065211;28;20048;-82
2021/04/28 08:16:22;;;;;;;32.58;16.30;;;11.00;99.90;;;;;;5068822;28;20056;-83
2021/04/28 08:18:49;;;;;;;29.08;17.83;;;11.00;99.90;;;;;;5050007;28;20135;-82
2021/04/28 08:21:17;;;;;;;34.30;17.73;;;10.90;99.90;;;;;;5054847;28;20056;-81
2021/04/28 08:23:45;;;;;;;32.47;18.67;;;11.00;99.90;;;;;;5053977;28;20515;-83
2021/04/28 08:26:14;;;;;;;30.48;17.80;;;11.00;99.90;;;;;;5055157;28;20052;-82
2021/04/28 08:28:44;;;;;;;41.38;19.50;;;10.90;99.90;;;;;;5036668;28;20415;-83
2021/04/28 08:31:18;;;;;;;37.03;17.10;;;10.90;99.90;;;;;;5052797;28;20055;-83
2021/04/28 08:34:11;;;;;;;37.65;17.75;;;11.00;99.90;;;;;;5065864;28;20052;-82
2021/04/28 08:36:40;;;;;;;35.13;16.52;;;10.90;99.90;;;;;;5067264;28;20049;-83
2021/04/28 08:39:08;;;;;;;34.55;17.67;;;10.90;99.90;;;;;;5055227;28;20395;-83
2021/04/28 08:41:37;;;;;;;35.97;16.63;;;10.90;99.90;;;;;;5038094;28;20062;-82
2021/04/28 08:44:06;;;;;;;36.05;15.55;;;10.90;99.90;;;;;;5072012;28;20572;-83
2021/04/28 08:46:39;;;;;;;37.72;16.10;;;11.00;99.90;;;;;;5071077;28;20503;-82
2021/04/28 08:49:08;;;;;;;24.52;13.82;;;11.00;99.90;;;;;;5032824;28;20060;-82
2021/04/28 08:51:46;;;;;;;25.52;13.30;;;11.00;99.90;;;;;;5046139;28;20053;-81
2021/04/28 08:54:23;;;;;;;29.48;13.50;;;11.00;99.90;;;;;;5056511;28;20666;-84
2021/04/28 08:56:52;;;;;;;24.25;15.20;;;11.00;99.90;;;;;;5034704;28;20052;-83
2021/04/28 08:59:20;;;;;;;24.83;12.50;;;11.00;99.90;;;;;;5069418;28;20049;-82
2021/04/28 09:01:48;;;;;;;32.70;13.50;;;11.00;99.90;;;;;;5076528;28;20052;-83
2021/04/28 09:04:17;;;;;;;31.45;11.65;;;11.00;99.90;;;;;;5075616;28;20048;-83
2021/04/28 09:06:46;;;;;;;36.47;16.15;;;11.10;99.90;;;;;;5074150;28;20049;-82
2021/04/28 09:09:15;;;;;;;25.48;11.10;;;11.20;99.90;;;;;;5050135;28;20060;-83
2021/04/28 09:11:45;;;;;;;26.48;14.60;;;11.20;99.90;;;;;;5070552;28;20067;-83
2021/04/28 09:14:24;;;;;;;30.45;13.70;;;11.20;99.90;;;;;;5072131;28;20045;-83
2021/04/28 09:16:54;;;;;;;28.75;12.15;;;11.20;99.90;;;;;;5054548;28;20048;-82
2021/04/28 09:19:45;;;;;;;27.73;11.20;;;11.30;99.90;;;;;;5078237;28;20048;-83
2021/04/28 09:22:38;;;;;;;26.83;11.18;;;11.30;99.90;;;;;;5061070;28;20052;-83
2021/04/28 09:25:45;;;;;;;20.83;10.77;;;11.40;99.90;;;;;;5033302;28;20049;-83
2021/04/28 09:28:51;;;;;;;23.98;10.07;;;11.40;99.90;;;;;;5056257;28;20056;-83
2021/04/28 09:31:19;;;;;;;28.05;9.35;;;11.40;99.90;;;;;;5073740;28;20063;-83
2021/04/28 09:33:48;;;;;;;20.02;8.77;;;11.40;99.90;;;;;;5075855;28;20037;-83
2021/04/28 09:36:34;;;;;;;26.70;10.60;;;11.50;99.90;;;;;;5060777;28;20063;-83
2021/04/28 09:39:10;;;;;;;24.02;9.48;;;11.50;99.90;;;;;;5057009;28;20048;-83
2021/04/28 09:41:45;;;;;;;24.23;10.05;;;11.60;99.90;;;;;;5075645;28;20055;-83
2021/04/28 09:44:18;;;;;;;19.98;9.13;;;11.60;99.90;;;;;;5072215;28;20504;-83
2021/04/28 09:47:15;;;;;;;21.55;9.02;;;11.60;99.90;;;;;;5074851;28;20067;-83
2021/04/28 09:49:58;;;;;;;29.95;9.65;;;11.60;99.90;;;;;;5057433;28;20036;-82
2021/04/28 09:52:34;;;;;;;23.00;9.45;;;11.60;99.90;;;;;;5057007;28;20045;-90
2021/04/28 09:55:15;;;;;;;24.05;9.45;;;11.60;99.90;;;;;;5078378;28;20059;-84
2021/04/28 09:57:47;;;;;;;20.65;11.20;;;11.60;99.90;;;;;;5075334;28;20056;-83
2021/04/28 10:00:23;;;;;;;22.55;10.75;;;11.60;99.90;;;;;;5054415;28;20049;-83
2021/04/28 10:03:01;;;;;;;19.95;9.07;;;11.70;99.90;;;;;;5077242;28;20060;-83
2021/04/28 10:05:41;;;;;;;21.75;9.30;;;11.80;99.90;;;;;;5054657;28;20061;-85
2021/04/28 10:08:23;;;;;;;20.25;9.10;;;11.90;99.90;;;;;;5041068;28;20048;-84
2021/04/28 10:10:52;;;;;;;19.48;9.77;;;12.00;99.90;;;;;;5060253;28;20428;-83
2021/04/28 10:13:20;;;;;;;26.23;8.73;;;12.20;99.90;;;;;;5056316;28;20056;-83
2021/04/28 10:15:47;;;;;;;24.75;9.60;;;12.30;99.90;;;;;;5032920;28;20220;-83
2021/04/28 10:18:16;;;;;;;20.02;8.55;;;12.50;99.90;;;;;;5049204;28;20045;-81
2021/04/28 10:20:45;;;;;;;25.48;8.48;;;12.60;99.90;;;;;;5048694;28;20131;-83
2021/04/28 10:23:17;;;;;;;22.83;8.38;;;12.80;99.90;;;;;;5048876;28;20048;-82
2021/04/28 10:25:49;;;;;;;21.80;8.15;;;13.00;99.90;;;;;;5041842;28;20144;-83
2021/04/28 10:28:22;;;;;;;18.77;9.15;;;13.10;99.90;;;;;;5044930;28;20052;-84
2021/04/28 10:30:50;;;;;;;21.05;8.38;;;13.20;99.90;;;;;;5024743;28;20053;-83
2021/04/28 10:33:24;;;;;;;26.58;8.35;;;13.20;99.90;;;;;;5048136;28;20053;-83
2021/04/28 10:35:52;;;;;;;21.80;9.32;;;13.20;99.90;;;;;;5047086;28;20053;-83
2021/04/28 10:38:22;;;;;;;19.63;9.50;;;13.20;99.90;;;;;;5048579;28;20511;-84
2021/04/28 10:40:49;;;;;;;17.48;7.53;;;13.20;99.90;;;;;;5047370;28;20040;-81
2021/04/28 10:43:37;;;;;;;16.95;9.02;;;13.30;99.90;;;;;;5046598;28;20045;-84
2021/04/28 10:46:19;;;;;;;19.40;8.07;;;13.30;99.90;;;;;;5031521;28;20064;-84
2021/04/28 10:49:16;;;;;;;;;;;13.40;99.90;;;;;;5046412;28;20057;-84
2021/04/28 10:51:47;;;;;;;19.73;9.25;;;13.40;99.10;;;;;;5049161;28;19932;-81
2021/04/28 10:54:29;;;;;;;18.17;7.72;;;13.40;99.40;;;;;;5048125;28;20056;-85
2021/04/28 10:57:08;;;;;;;20.27;7.05;;;13.30;99.10;;;;;;5055813;28;20063;-83
2021/04/28 10:59:41;;;;;;;25.85;9.55;;;13.40;99.30;;;;;;5039354;28;20382;-84
2021/04/28 11:02:10;;;;;;;25.38;8.38;;;13.50;99.40;;;;;;5044638;28;20049;-84
2021/04/28 11:04:43;;;;;;;24.73;11.13;;;13.50;99.30;;;;;;5042283;28;20074;-84
2021/04/28 11:07:13;;;;;;;14.98;7.85;;;13.50;98.70;;;;;;5065936;28;20052;-84
2021/04/28 11:09:41;;;;;;;15.93;7.85;;;13.50;97.90;;;;;;5066234;28;20048;-84
2021/04/28 11:12:08;;;;;;;24.83;8.20;;;13.50;98.20;;;;;;5048630;28;20052;-84
2021/04/28 11:14:45;;;;;;;20.27;8.02;;;13.60;98.10;;;;;;5047480;28;20041;-85
2021/04/28 11:17:15;;;;;;;16.88;8.90;;;13.70;98.10;;;;;;5064627;28;20074;-84
2021/04/28 11:19:43;;;;;;;21.33;7.47;;;13.60;98.50;;;;;;5066679;28;20051;-84
2021/04/28 11:22:15;;;;;;;20.35;8.35;;;13.60;98.00;;;;;;5065649;28;20044;-83
2021/04/28 11:25:07;;;;;;;16.17;7.07;;;13.50;97.70;;;;;;5070811;28;20056;-84
2021/04/28 11:27:47;;;;;;;20.05;7.78;;;13.40;96.70;;;;;;5067712;28;20056;-84
2021/04/28 11:30:32;;;;;;;21.38;7.88;;;13.30;96.30;;;;;;5065688;28;20071;-84
2021/04/28 11:33:10;;;;;;;17.90;6.63;;;13.20;95.10;;;;;;5033798;28;20048;-84
2021/04/28 11:36:00;;;;;;;16.88;6.95;;;13.20;94.30;;;;;;5068447;28;20072;-84
2021/04/28 11:38:39;;;;;;;13.75;6.15;;;13.40;94.30;;;;;;5045379;28;20063;-83
2021/04/28 11:41:25;;;;;;;14.43;6.93;;;13.30;93.90;;;;;;5038966;28;20056;-85
2021/04/28 11:43:58;;;;;;;22.20;6.35;;;13.30;93.40;;;;;;5053727;28;20060;-83
2021/04/28 11:46:28;;;;;;;24.08;6.50;;;13.40;93.50;;;;;;5053126;28;20044;-83
2021/04/28 11:49:00;;;;;;;12.02;6.15;;;13.40;92.60;;;;;;5051476;28;20049;-84
2021/04/28 11:51:33;;;;;;;17.30;6.70;;;13.40;92.10;;;;;;5045583;28;20053;-84
2021/04/28 11:54:03;;;;;;;14.00;6.72;;;13.40;92.10;;;;;;5065302;28;20056;-84
2021/04/28 11:56:41;;;;;;;18.73;6.60;;;13.30;92.10;;;;;;5053248;28;20044;-84
2021/04/28 11:59:28;;;;;;;24.60;8.35;;;13.30;91.20;;;;;;5049297;28;20060;-83
2021/04/28 12:01:57;;;;;;;17.73;5.93;;;13.20;90.80;;;;;;5045862;28;20044;-85
2021/04/28 12:04:49;;;;;;;11.80;5.40;;;13.10;90.10;;;;;;5028132;28;20049;-84
2021/04/28 12:07:17;;;;;;;17.77;6.18;;;13.00;89.90;;;;;;5062836;28;20056;-84
2021/04/28 12:09:49;;;;;;;15.07;5.75;;;12.90;89.70;;;;;;5067259;28;20438;-84
2021/04/28 12:12:20;;;;;;;13.82;5.90;;;12.90;87.70;;;;;;5052026;28;20056;-84
2021/04/28 12:14:49;;;;;;;16.40;6.63;;;12.80;87.70;;;;;;5068231;28;20211;-84
2021/04/28 12:17:24;;;;;;;19.45;6.20;;;12.90;87.20;;;;;;5068108;28;20064;-84
2021/04/28 12:19:56;;;;;;;18.60;5.93;;;12.70;85.50;;;;;;5044731;28;20048;-83
2021/04/28 12:22:25;;;;;;;20.55;5.32;;;12.80;86.10;;;;;;5070155;28;20052;-84
2021/04/28 12:24:58;;;;;;;15.40;6.07;;;12.70;85.70;;;;;;5070135;28;20660;-84
2021/04/28 12:27:30;;;;;;;12.70;5.38;;;12.70;85.40;;;;;;5069595;28;20387;-84
2021/04/28 12:30:12;;;;;;;16.17;4.78;;;12.80;84.50;;;;;;5067569;28;20055;-84
2021/04/28 12:32:42;;;;;;;16.33;5.97;;;12.70;83.80;;;;;;5069075;28;20058;-84
2021/04/28 12:35:16;;;;;;;14.13;5.90;;;12.70;83.60;;;;;;5069898;28;20127;-84
2021/04/28 12:38:14;;;;;;;17.67;6.30;;;12.70;82.70;;;;;;5068893;28;20056;-85
2021/04/28 12:40:44;;;;;;;20.00;6.00;;;12.70;79.10;;;;;;5063100;28;20460;-84
2021/04/28 12:43:15;;;;;;;14.40;6.00;;;12.60;79.20;;;;;;5048633;28;20056;-84
2021/04/28 12:46:07;;;;;;;14.13;5.40;;;12.60;76.80;;;;;;5069102;28;20056;-84
2021/04/28 12:48:59;;;;;;;12.50;6.03;;;12.60;74.90;;;;;;5050105;28;20048;-85
2021/04/28 12:51:27;;;;;;;11.05;5.95;;;12.60;73.90;;;;;;5067801;28;20064;-84
2021/04/28 12:53:55;;;;;;;13.70;5.65;;;12.60;74.80;;;;;;5058172;28;20751;-84
2021/04/28 12:56:24;;;;;;;25.17;7.15;;;12.60;74.60;;;;;;5017240;28;20052;-84
2021/04/28 12:58:52;;;;;;;15.05;5.80;;;12.60;74.90;;;;;;5051250;28;20428;-87
2021/04/28 13:01:22;;;;;;;36.78;7.20;;;12.70;75.20;;;;;;5053645;28;20537;-86
2021/04/28 13:03:55;;;;;;;12.88;5.55;;;12.80;74.40;;;;;;5053007;28;20051;-89
2021/04/28 13:06:25;;;;;;;14.30;6.35;;;12.90;74.60;;;;;;5036083;28;20044;-91